sensor_id;sensor_type;location;lat;lon;timestamp;pressure;altitude;pressure_sealevel;temperature;humidity
50684;BME280;36654;45.042;38.994;2023-01-27T00:01:55;101928.34;;;-1.40;87.29
50684;BME280;36654;45.042;38.994;2023-01-27T00:04:21;101920.56;;;-1.40;87.37
50684;BME280;36654;45.042;38.994;2023-01-27T00:06:46;101921.34;;;-1.41;87.04
50684;BME280;36654;45.042;38.994;2023-01-27T00:09:12;101927.31;;;-1.42;87.11
50684;BME280;36654;45.042;38.994;2023-01-27T00:11:38;101893.91;;;-1.60;86.98
50684;BME280;36654;45.042;38.994;2023-01-27T00:14:22;101875.53;;;-1.73;87.03
50684;BME280;36654;45.042;38.994;2023-01-27T00:16:48;101936.97;;;-1.41;86.89
50684;BME280;36654;45.042;38.994;2023-01-27T00:19:13;101929.94;;;-1.42;87.15
50684;BME280;36654;45.042;38.994;2023-01-27T00:21:44;101928.34;;;-1.40;87.10
50684;BME280;36654;45.042;38.994;2023-01-27T00:24:28;101926.91;;;-1.37;87.21
50684;BME280;36654;45.042;38.994;2023-01-27T00:27:07;101922.09;;;-1.32;87.36
50684;BME280;36654;45.042;38.994;2023-01-27T00:29:36;101904.53;;;-1.35;87.61
50684;BME280;36654;45.042;38.994;2023-01-27T00:32:03;101905.53;;;-1.33;87.35
50684;BME280;36654;45.042;38.994;2023-01-27T00:34:47;101911.34;;;-1.25;87.57
50684;BME280;36654;45.042;38.994;2023-01-27T00:37:13;101875.63;;;-1.49;87.61
50684;BME280;36654;45.042;38.994;2023-01-27T00:39:39;101898.66;;;-1.32;87.55
50684;BME280;36654;45.042;38.994;2023-01-27T00:42:04;101911.34;;;-1.25;87.63
50684;BME280;36654;45.042;38.994;2023-01-27T00:44:30;101905.13;;;-1.27;87.94
50684;BME280;36654;45.042;38.994;2023-01-27T00:46:56;101890.84;;;-1.32;87.70
50684;BME280;36654;45.042;38.994;2023-01-27T00:49:21;101904.88;;;-1.30;87.58
50684;BME280;36654;45.042;38.994;2023-01-27T00:51:47;101901.50;;;-1.29;87.76
50684;BME280;36654;45.042;38.994;2023-01-27T00:54:13;101906.69;;;-1.29;87.74
50684;BME280;36654;45.042;38.994;2023-01-27T00:56:39;101896.84;;;-1.33;87.71
50684;BME280;36654;45.042;38.994;2023-01-27T00:59:05;101909.97;;;-1.32;87.85
50684;BME280;36654;45.042;38.994;2023-01-27T01:01:31;101898.16;;;-1.38;87.70
50684;BME280;36654;45.042;38.994;2023-01-27T01:03:58;101903.91;;;-1.42;87.57
50684;BME280;36654;45.042;38.994;2023-01-27T01:06:24;101899.66;;;-1.42;87.68
50684;BME280;36654;45.042;38.994;2023-01-27T01:08:50;101896.91;;;-1.43;87.62
50684;BME280;36654;45.042;38.994;2023-01-27T01:11:18;101893.50;;;-1.42;87.84
50684;BME280;36654;45.042;38.994;2023-01-27T01:13:45;101901.44;;;-1.41;87.90
50684;BME280;36654;45.042;38.994;2023-01-27T01:16:19;101889.09;;;-1.43;87.69
50684;BME280;36654;45.042;38.994;2023-01-27T01:18:46;101885.25;;;-1.48;87.71
50684;BME280;36654;45.042;38.994;2023-01-27T01:21:12;101878.78;;;-1.54;87.65
50684;BME280;36654;45.042;38.994;2023-01-27T01:23:42;101875.81;;;-1.58;87.73
50684;BME280;36654;45.042;38.994;2023-01-27T01:26:12;101867.66;;;-1.63;87.66
50684;BME280;36654;45.042;38.994;2023-01-27T01:28:38;101853.16;;;-1.71;87.83
50684;BME280;36654;45.042;38.994;2023-01-27T01:31:09;101849.06;;;-1.79;87.62
50684;BME280;36654;45.042;38.994;2023-01-27T01:33:35;101846.75;;;-1.86;87.75
50684;BME280;36654;45.042;38.994;2023-01-27T01:36:12;101848.09;;;-1.91;87.63
50684;BME280;36654;45.042;38.994;2023-01-27T01:38:39;101850.31;;;-1.96;87.68
50684;BME280;36654;45.042;38.994;2023-01-27T01:41:08;101795.00;;;-2.27;87.58
50684;BME280;36654;45.042;38.994;2023-01-27T01:43:34;101842.34;;;-2.09;87.54
50684;BME280;36654;45.042;38.994;2023-01-27T01:46:00;101842.06;;;-2.12;87.97
50684;BME280;36654;45.042;38.994;2023-01-27T01:48:39;101864.47;;;-2.14;87.78
50684;BME280;36654;45.042;38.994;2023-01-27T01:53:54;101833.19;;;-2.26;87.94
50684;BME280;36654;45.042;38.994;2023-01-27T01:56:24;101847.69;;;-2.18;87.92
50684;BME280;36654;45.042;38.994;2023-01-27T01:58:52;101862.53;;;-2.17;88.07
50684;BME280;36654;45.042;38.994;2023-01-27T02:01:20;101797.50;;;-2.61;88.02
50684;BME280;36654;45.042;38.994;2023-01-27T02:03:50;101845.94;;;-2.29;87.89
50684;BME280;36654;45.042;38.994;2023-01-27T02:06:16;101844.00;;;-2.32;87.85
50684;BME280;36654;45.042;38.994;2023-01-27T02:08:44;101846.22;;;-2.36;87.68
50684;BME280;36654;45.042;38.994;2023-01-27T02:11:11;101830.94;;;-2.44;87.75
50684;BME280;36654;45.042;38.994;2023-01-27T02:13:40;101837.41;;;-2.39;87.73
50684;BME280;36654;45.042;38.994;2023-01-27T02:16:07;101842.59;;;-2.39;87.49
50684;BME280;36654;45.042;38.994;2023-01-27T02:18:33;101822.63;;;-2.50;87.70
50684;BME280;36654;45.042;38.994;2023-01-27T02:21:00;101829.91;;;-2.46;87.58
50684;BME280;36654;45.042;38.994;2023-01-27T02:26:33;101790.19;;;-2.77;87.17
50684;BME280;36654;45.042;38.994;2023-01-27T02:29:06;101822.19;;;-2.66;87.08
50684;BME280;36654;45.042;38.994;2023-01-27T02:31:31;101839.56;;;-2.65;86.87
50684;BME280;36654;45.042;38.994;2023-01-27T02:34:04;101829.59;;;-2.71;86.79
50684;BME280;36654;45.042;38.994;2023-01-27T02:36:33;101827.41;;;-2.76;86.71
50684;BME280;36654;45.042;38.994;2023-01-27T02:39:01;101820.91;;;-2.71;86.87
50684;BME280;36654;45.042;38.994;2023-01-27T02:41:38;101833.06;;;-2.60;87.03
50684;BME280;36654;45.042;38.994;2023-01-27T02:44:06;101830.47;;;-2.60;86.87
50684;BME280;36654;45.042;38.994;2023-01-27T02:46:31;101832.06;;;-2.62;86.77
50684;BME280;36654;45.042;38.994;2023-01-27T02:48:57;101825.81;;;-2.64;86.38
50684;BME280;36654;45.042;38.994;2023-01-27T02:51:23;101837.88;;;-2.65;86.37
50684;BME280;36654;45.042;38.994;2023-01-27T02:53:48;101835.94;;;-2.67;86.47
50684;BME280;36654;45.042;38.994;2023-01-27T02:56:14;101823.88;;;-2.67;86.28
50684;BME280;36654;45.042;38.994;2023-01-27T02:58:39;101818.06;;;-2.74;86.06
50684;BME280;36654;45.042;38.994;2023-01-27T03:01:05;101835.84;;;-2.69;85.75
50684;BME280;36654;45.042;38.994;2023-01-27T03:03:31;101822.72;;;-2.70;85.69
50684;BME280;36654;45.042;38.994;2023-01-27T03:05:57;101768.06;;;-3.04;85.60
50684;BME280;36654;45.042;38.994;2023-01-27T03:08:22;101743.97;;;-3.23;85.52
50684;BME280;36654;45.042;38.994;2023-01-27T03:10:53;101807.69;;;-2.85;85.59
50684;BME280;36654;45.042;38.994;2023-01-27T03:13:21;101825.59;;;-2.77;85.52
50684;BME280;36654;45.042;38.994;2023-01-27T03:15:48;101844.56;;;-2.78;85.33
50684;BME280;36654;45.042;38.994;2023-01-27T03:18:32;101831.06;;;-2.85;85.34
50684;BME280;36654;45.042;38.994;2023-01-27T03:21:03;101819.94;;;-2.94;85.23
50684;BME280;36654;45.042;38.994;2023-01-27T03:23:30;101830.94;;;-2.86;85.36
50684;BME280;36654;45.042;38.994;2023-01-27T03:25:58;101826.66;;;-2.86;85.26
50684;BME280;36654;45.042;38.994;2023-01-27T03:28:24;101819.94;;;-2.94;85.11
50684;BME280;36654;45.042;38.994;2023-01-27T03:30:50;101733.00;;;-3.41;85.18
50684;BME280;36654;45.042;38.994;2023-01-27T03:33:15;101826.81;;;-2.94;85.23
50684;BME280;36654;45.042;38.994;2023-01-27T03:35:41;101817.84;;;-2.98;85.10
50684;BME280;36654;45.042;38.994;2023-01-27T03:38:15;101794.56;;;-3.18;85.07
50684;BME280;36654;45.042;38.994;2023-01-27T03:41:02;101791.81;;;-3.20;85.07
50684;BME280;36654;45.042;38.994;2023-01-27T03:43:46;101838.09;;;-2.94;85.21
50684;BME280;36654;45.042;38.994;2023-01-27T03:46:30;101833.16;;;-2.91;85.06
50684;BME280;36654;45.042;38.994;2023-01-27T03:48:57;101846.13;;;-2.91;85.00
50684;BME280;36654;45.042;38.994;2023-01-27T03:51:24;101831.22;;;-2.93;84.90
50684;BME280;36654;45.042;38.994;2023-01-27T03:53:50;101841.75;;;-2.92;84.85
50684;BME280;36654;45.042;38.994;2023-01-27T03:56:17;101793.00;;;-3.16;85.03
50684;BME280;36654;45.042;38.994;2023-01-27T03:58:43;101832.34;;;-2.90;85.03
50684;BME280;36654;45.042;38.994;2023-01-27T04:03:38;101851.06;;;-2.84;84.79
50684;BME280;36654;45.042;38.994;2023-01-27T04:06:27;101837.28;;;-2.83;84.59
50684;BME280;36654;45.042;38.994;2023-01-27T04:09:13;101837.81;;;-2.76;84.58
50684;BME280;36654;45.042;38.994;2023-01-27T04:11:38;101766.66;;;-3.11;84.55
50684;BME280;36654;45.042;38.994;2023-01-27T04:14:21;101779.09;;;-3.07;84.47
50684;BME280;36654;45.042;38.994;2023-01-27T04:16:47;101835.69;;;-2.70;84.51
50684;BME280;36654;45.042;38.994;2023-01-27T04:19:13;101846.22;;;-2.69;84.56
50684;BME280;36654;45.042;38.994;2023-01-27T04:21:38;101842.19;;;-2.75;84.42
50684;BME280;36654;45.042;38.994;2023-01-27T04:24:05;101740.09;;;-3.29;84.53
50684;BME280;36654;45.042;38.994;2023-01-27T04:26:33;101831.28;;;-2.71;84.74
50684;BME280;36654;45.042;38.994;2023-01-27T04:29:03;101854.63;;;-2.61;84.59
50684;BME280;36654;45.042;38.994;2023-01-27T04:31:29;101838.53;;;-2.67;84.56
50684;BME280;36654;45.042;38.994;2023-01-27T04:33:55;101825.84;;;-2.74;84.66
50684;BME280;36654;45.042;38.994;2023-01-27T04:36:20;101852.06;;;-2.71;84.56
50684;BME280;36654;45.042;38.994;2023-01-27T04:38:46;101839.59;;;-2.75;84.62
50684;BME280;36654;45.042;38.994;2023-01-27T04:41:12;101846.25;;;-2.79;84.84
50684;BME280;36654;45.042;38.994;2023-01-27T04:43:37;101847.94;;;-2.79;84.96
50684;BME280;36654;45.042;38.994;2023-01-27T04:46:03;101839.88;;;-2.83;84.74
50684;BME280;36654;45.042;38.994;2023-01-27T04:48:29;101830.41;;;-2.92;85.14
50684;BME280;36654;45.042;38.994;2023-01-27T04:50:54;101838.59;;;-2.88;85.11
50684;BME280;36654;45.042;38.994;2023-01-27T04:53:20;101837.03;;;-2.86;85.22
50684;BME280;36654;45.042;38.994;2023-01-27T04:55:47;101836.53;;;-2.92;85.52
50684;BME280;36654;45.042;38.994;2023-01-27T04:58:14;101842.88;;;-2.88;85.37
50684;BME280;36654;45.042;38.994;2023-01-27T05:00:42;101817.22;;;-3.06;85.42
50684;BME280;36654;45.042;38.994;2023-01-27T05:03:08;101844.56;;;-2.89;85.69
50684;BME280;36654;45.042;38.994;2023-01-27T05:05:35;101838.59;;;-2.88;85.89
50684;BME280;36654;45.042;38.994;2023-01-27T05:08:05;101800.50;;;-3.09;85.80
50684;BME280;36654;45.042;38.994;2023-01-27T05:10:32;101781.97;;;-3.14;85.89
50684;BME280;36654;45.042;38.994;2023-01-27T05:12:58;101821.22;;;-2.89;85.90
50684;BME280;36654;45.042;38.994;2023-01-27T05:15:24;101844.16;;;-2.83;85.74
50684;BME280;36654;45.042;38.994;2023-01-27T05:17:50;101839.88;;;-2.83;85.63
50684;BME280;36654;45.042;38.994;2023-01-27T05:20:16;101832.50;;;-2.88;85.89
50684;BME280;36654;45.042;38.994;2023-01-27T05:22:41;101828.88;;;-2.90;85.94
50684;BME280;36654;45.042;38.994;2023-01-27T05:25:08;101850.00;;;-2.86;85.95
50684;BME280;36654;45.042;38.994;2023-01-27T05:27:34;101849.22;;;-2.85;85.94
50684;BME280;36654;45.042;38.994;2023-01-27T05:30:00;101834.59;;;-2.84;86.07
50684;BME280;36654;45.042;38.994;2023-01-27T05:32:26;101836.75;;;-2.78;86.11
50684;BME280;36654;45.042;38.994;2023-01-27T05:34:52;101834.97;;;-2.79;85.90
50684;BME280;36654;45.042;38.994;2023-01-27T05:37:17;101792.44;;;-2.92;85.82
50684;BME280;36654;45.042;38.994;2023-01-27T05:39:43;101792.66;;;-2.89;85.92
50684;BME280;36654;45.042;38.994;2023-01-27T05:42:08;101843.16;;;-2.53;85.82
50684;BME280;36654;45.042;38.994;2023-01-27T05:44:34;101840.31;;;-2.56;85.70
50684;BME280;36654;45.042;38.994;2023-01-27T05:46:59;101841.38;;;-2.54;85.75
50684;BME280;36654;45.042;38.994;2023-01-27T05:49:25;101801.03;;;-2.71;85.85
50684;BME280;36654;45.042;38.994;2023-01-27T05:51:51;101849.50;;;-2.39;85.98
50684;BME280;36654;45.042;38.994;2023-01-27T05:54:16;101839.22;;;-2.38;85.78
50684;BME280;36654;45.042;38.994;2023-01-27T05:56:42;101836.59;;;-2.38;85.93
50684;BME280;36654;45.042;38.994;2023-01-27T05:59:09;101800.25;;;-2.59;85.81
50684;BME280;36654;45.042;38.994;2023-01-27T06:01:35;101834.09;;;-2.26;86.05
50684;BME280;36654;45.042;38.994;2023-01-27T06:04:02;101834.59;;;-2.20;86.05
50684;BME280;36654;45.042;38.994;2023-01-27T06:06:29;101836.94;;;-2.23;85.81
50684;BME280;36654;45.042;38.994;2023-01-27T06:08:55;101843.81;;;-2.23;85.66
50684;BME280;36654;45.042;38.994;2023-01-27T06:11:21;101843.06;;;-2.32;85.58
50684;BME280;36654;45.042;38.994;2023-01-27T06:13:48;101831.13;;;-2.30;85.43
50684;BME280;36654;45.042;38.994;2023-01-27T06:16:16;101831.94;;;-2.31;85.69
50684;BME280;36654;45.042;38.994;2023-01-27T06:18:42;101826.59;;;-2.33;85.58
50684;BME280;36654;45.042;38.994;2023-01-27T06:21:09;101819.03;;;-2.30;85.73
50684;BME280;36654;45.042;38.994;2023-01-27T06:23:36;101810.09;;;-2.33;85.84
50684;BME280;36654;45.042;38.994;2023-01-27T06:26:13;101811.09;;;-2.21;85.85
50684;BME280;36654;45.042;38.994;2023-01-27T06:28:40;101813.16;;;-2.17;85.86
50684;BME280;36654;45.042;38.994;2023-01-27T06:31:12;101802.78;;;-2.17;85.85
50684;BME280;36654;45.042;38.994;2023-01-27T06:33:38;101811.84;;;-2.12;85.71
50684;BME280;36654;45.042;38.994;2023-01-27T06:36:06;101793.06;;;-2.08;85.79
50684;BME280;36654;45.042;38.994;2023-01-27T06:38:32;101806.44;;;-2.03;85.65
50684;BME280;36654;45.042;38.994;2023-01-27T06:40:59;101801.38;;;-2.02;85.66
50684;BME280;36654;45.042;38.994;2023-01-27T06:43:25;101799.25;;;-1.96;85.46
50684;BME280;36654;45.042;38.994;2023-01-27T06:45:51;101803.34;;;-1.87;85.31
50684;BME280;36654;45.042;38.994;2023-01-27T06:48:17;101793.44;;;-1.81;85.33
50684;BME280;36654;45.042;38.994;2023-01-27T06:50:43;101785.09;;;-1.77;85.17
50684;BME280;36654;45.042;38.994;2023-01-27T06:53:09;101785.19;;;-1.76;84.75
50684;BME280;36654;45.042;38.994;2023-01-27T06:55:36;101800.34;;;-1.70;84.41
50684;BME280;36654;45.042;38.994;2023-01-27T06:58:09;101805.00;;;-1.66;84.48
50684;BME280;36654;45.042;38.994;2023-01-27T07:00:36;101801.06;;;-1.61;84.09
50684;BME280;36654;45.042;38.994;2023-01-27T07:03:03;101802.22;;;-1.57;83.85
50684;BME280;36654;45.042;38.994;2023-01-27T07:05:28;101788.97;;;-1.60;83.70
50684;BME280;36654;45.042;38.994;2023-01-27T07:07:54;101795.19;;;-1.58;83.36
50684;BME280;36654;45.042;38.994;2023-01-27T07:10:19;101757.03;;;-1.81;83.36
50684;BME280;36654;45.042;38.994;2023-01-27T07:12:45;101795.56;;;-1.54;83.06
50684;BME280;36654;45.042;38.994;2023-01-27T07:15:11;101783.34;;;-1.55;82.75
50684;BME280;36654;45.042;38.994;2023-01-27T07:17:37;101786.06;;;-1.53;82.42
50684;BME280;36654;45.042;38.994;2023-01-27T07:20:03;101783.69;;;-1.50;82.23
50684;BME280;36654;45.042;38.994;2023-01-27T07:22:29;101766.41;;;-1.49;82.14
50684;BME280;36654;45.042;38.994;2023-01-27T07:24:55;101793.78;;;-1.31;82.12
50684;BME280;36654;45.042;38.994;2023-01-27T07:27:21;101784.09;;;-1.22;82.10
50684;BME280;36654;45.042;38.994;2023-01-27T07:29:47;101777.97;;;-1.11;81.94
50684;BME280;36654;45.042;38.994;2023-01-27T07:32:13;101780.13;;;-0.93;81.65
50684;BME280;36654;45.042;38.994;2023-01-27T07:34:38;101778.22;;;-0.84;81.23
50684;BME280;36654;45.042;38.994;2023-01-27T07:37:04;101776.84;;;-0.79;81.01
50684;BME280;36654;45.042;38.994;2023-01-27T07:39:30;101761.09;;;-0.80;80.83
50684;BME280;36654;45.042;38.994;2023-01-27T07:41:58;101781.50;;;-0.75;80.48
50684;BME280;36654;45.042;38.994;2023-01-27T07:44:25;101772.66;;;-0.77;80.23
50684;BME280;36654;45.042;38.994;2023-01-27T07:46:51;101769.59;;;-0.71;80.29
50684;BME280;36654;45.042;38.994;2023-01-27T07:49:16;101745.41;;;-0.82;80.12
50684;BME280;36654;45.042;38.994;2023-01-27T07:51:45;101767.13;;;-0.70;79.84
50684;BME280;36654;45.042;38.994;2023-01-27T07:54:11;101768.91;;;-0.69;79.69
50684;BME280;36654;45.042;38.994;2023-01-27T07:56:37;101757.94;;;-0.64;79.54
50684;BME280;36654;45.042;38.994;2023-01-27T07:59:03;101774.34;;;-0.66;79.40
50684;BME280;36654;45.042;38.994;2023-01-27T08:01:29;101776.16;;;-0.64;79.47
50684;BME280;36654;45.042;38.994;2023-01-27T08:03:54;101730.66;;;-0.70;79.62
50684;BME280;36654;45.042;38.994;2023-01-27T08:06:20;101729.50;;;-0.61;79.53
50684;BME280;36654;45.042;38.994;2023-01-27T08:08:46;101728.13;;;-0.56;79.41
50684;BME280;36654;45.042;38.994;2023-01-27T08:11:14;101717.25;;;-0.62;79.54
50684;BME280;36654;45.042;38.994;2023-01-27T08:13:40;101708.66;;;-0.61;79.61
50684;BME280;36654;45.042;38.994;2023-01-27T08:16:08;101718.59;;;-0.44;79.47
50684;BME280;36654;45.042;38.994;2023-01-27T08:18:35;101711.19;;;-0.38;79.47
50684;BME280;36654;45.042;38.994;2023-01-27T08:21:03;101696.16;;;-0.42;79.46
50684;BME280;36654;45.042;38.994;2023-01-27T08:23:30;101690.00;;;-0.31;79.46
50684;BME280;36654;45.042;38.994;2023-01-27T08:25:58;101686.59;;;-0.30;79.40
50684;BME280;36654;45.042;38.994;2023-01-27T08:28:25;101689.25;;;-0.16;79.60
50684;BME280;36654;45.042;38.994;2023-01-27T08:30:52;101680.75;;;-0.14;79.27
50684;BME280;36654;45.042;38.994;2023-01-27T08:33:19;101681.47;;;-0.03;79.24
50684;BME280;36654;45.042;38.994;2023-01-27T08:35:45;101677.41;;;0.01;79.13
50684;BME280;36654;45.042;38.994;2023-01-27T08:38:12;101629.69;;;-0.24;78.85
50684;BME280;36654;45.042;38.994;2023-01-27T08:40:39;101587.97;;;-0.37;79.07
50684;BME280;36654;45.042;38.994;2023-01-27T08:43:05;101610.88;;;-0.19;78.73
50684;BME280;36654;45.042;38.994;2023-01-27T08:45:32;101656.25;;;0.09;78.76
50684;BME280;36654;45.042;38.994;2023-01-27T08:47:57;101657.28;;;0.25;78.65
50684;BME280;36654;45.042;38.994;2023-01-27T08:50:23;101652.47;;;0.31;78.62
50684;BME280;36654;45.042;38.994;2023-01-27T08:52:49;101626.41;;;0.31;78.51
50684;BME280;36654;45.042;38.994;2023-01-27T08:55:14;101642.47;;;0.50;78.17
50684;BME280;36654;45.042;38.994;2023-01-27T08:57:40;101567.19;;;0.30;78.07
50684;BME280;36654;45.042;38.994;2023-01-27T09:00:07;101592.47;;;0.57;77.91
50684;BME280;36654;45.042;38.994;2023-01-27T09:02:33;101636.22;;;1.01;77.27
50684;BME280;36654;45.042;38.994;2023-01-27T09:04:59;101628.34;;;1.15;76.95
50684;BME280;36654;45.042;38.994;2023-01-27T09:07:25;101611.66;;;1.26;76.42
50684;BME280;36654;45.042;38.994;2023-01-27T09:09:51;101584.09;;;1.31;76.03
50684;BME280;36654;45.042;38.994;2023-01-27T09:12:16;101590.97;;;1.44;75.67
50684;BME280;36654;45.042;38.994;2023-01-27T09:14:42;101605.81;;;1.58;75.00
50684;BME280;36654;45.042;38.994;2023-01-27T09:17:07;101600.22;;;1.67;74.64
50684;BME280;36654;45.042;38.994;2023-01-27T09:19:33;101591.94;;;1.74;74.16
50684;BME280;36654;45.042;38.994;2023-01-27T09:21:59;101585.66;;;1.85;73.61
50684;BME280;36654;45.042;38.994;2023-01-27T09:24:24;101586.72;;;1.89;73.04
50684;BME280;36654;45.042;38.994;2023-01-27T09:26:50;101571.50;;;1.97;72.61
50684;BME280;36654;45.042;38.994;2023-01-27T09:29:15;101576.28;;;2.04;72.42
50684;BME280;36654;45.042;38.994;2023-01-27T09:31:41;101576.00;;;2.14;71.90
50684;BME280;36654;45.042;38.994;2023-01-27T09:34:07;101537.16;;;2.05;71.56
50684;BME280;36654;45.042;38.994;2023-01-27T09:36:36;101584.22;;;2.35;70.82
50684;BME280;36654;45.042;38.994;2023-01-27T09:39:06;101575.19;;;2.45;70.05
50684;BME280;36654;45.042;38.994;2023-01-27T09:50:35;101553.59;;;2.49;68.43
50684;BME280;36654;45.042;38.994;2023-01-27T09:53:36;101549.50;;;2.54;68.48
50684;BME280;36654;45.042;38.994;2023-01-27T09:56:17;101541.03;;;2.58;68.59
50684;BME280;36654;45.042;38.994;2023-01-27T10:27:17;101488.22;;;3.47;66.75
50684;BME280;36654;45.042;38.994;2023-01-27T10:29:59;101470.81;;;3.49;66.51
50684;BME280;36654;45.042;38.994;2023-01-27T10:32:44;101482.81;;;3.62;66.17
50684;BME280;36654;45.042;38.994;2023-01-27T10:45:37;101469.41;;;3.90;63.48
50684;BME280;36654;45.042;38.994;2023-01-27T10:50:59;101455.75;;;3.97;63.15
50684;BME280;36654;45.042;38.994;2023-01-27T10:56:09;101452.25;;;4.15;63.03
50684;BME280;36654;45.042;38.994;2023-01-27T10:59:28;101416.59;;;4.02;62.31
50684;BME280;36654;45.042;38.994;2023-01-27T11:01:35;101457.25;;;4.28;61.80
50684;BME280;36654;45.042;38.994;2023-01-27T11:04:11;101438.25;;;4.33;60.96
50684;BME280;36654;45.042;38.994;2023-01-27T11:06:40;101447.19;;;4.37;60.58
50684;BME280;36654;45.042;38.994;2023-01-27T11:09:30;101440.44;;;4.42;60.37
50684;BME280;36654;45.042;38.994;2023-01-27T11:12:10;101428.81;;;4.37;60.33
50684;BME280;36654;45.042;38.994;2023-01-27T11:14:44;101441.81;;;4.53;59.90
50684;BME280;36654;45.042;38.994;2023-01-27T11:17:33;101435.91;;;4.58;59.08
50684;BME280;36654;45.042;38.994;2023-01-27T11:20:53;101434.66;;;4.69;58.18
50684;BME280;36654;45.042;38.994;2023-01-27T11:23:19;101429.63;;;4.73;57.93
50684;BME280;36654;45.042;38.994;2023-01-27T11:26:25;101414.81;;;4.75;57.19
50684;BME280;36654;45.042;38.994;2023-01-27T11:31:41;101422.75;;;4.96;56.09
50684;BME280;36654;45.042;38.994;2023-01-27T11:34:18;101368.44;;;4.76;55.62
50684;BME280;36654;45.042;38.994;2023-01-27T11:36:48;101415.72;;;5.15;55.22
50684;BME280;36654;45.042;38.994;2023-01-27T11:39:15;101410.59;;;5.18;54.18
50684;BME280;36654;45.042;38.994;2023-01-27T11:41:51;101408.25;;;5.24;53.64
50684;BME280;36654;45.042;38.994;2023-01-27T11:44:27;101411.19;;;5.32;53.13
50684;BME280;36654;45.042;38.994;2023-01-27T11:46:54;101402.38;;;5.31;52.80
50684;BME280;36654;45.042;38.994;2023-01-27T11:49:25;101416.13;;;5.45;52.24
50684;BME280;36654;45.042;38.994;2023-01-27T11:51:59;101415.50;;;5.51;52.56
50684;BME280;36654;45.042;38.994;2023-01-27T11:54:34;101395.19;;;5.47;51.99
50684;BME280;36654;45.042;38.994;2023-01-27T11:57:03;101412.06;;;5.52;52.12
50684;BME280;36654;45.042;38.994;2023-01-27T11:59:36;101392.78;;;5.53;52.15
50684;BME280;36654;45.042;38.994;2023-01-27T12:07:15;101408.72;;;5.77;51.50
50684;BME280;36654;45.042;38.994;2023-01-27T12:09:41;101414.13;;;5.81;50.96
50684;BME280;36654;45.042;38.994;2023-01-27T12:14:50;101417.94;;;5.88;49.83
50684;BME280;36654;45.042;38.994;2023-01-27T12:17:37;101410.13;;;5.90;49.10
50684;BME280;36654;45.042;38.994;2023-01-27T12:20:17;101403.69;;;5.83;48.93
50684;BME280;36654;45.042;38.994;2023-01-27T12:23:03;101420.63;;;5.90;48.73
50684;BME280;36654;45.042;38.994;2023-01-27T12:25:43;101416.25;;;5.90;48.98
50684;BME280;36654;45.042;38.994;2023-01-27T12:28:46;101415.59;;;5.94;49.63
50684;BME280;36654;45.042;38.994;2023-01-27T12:31:19;101420.09;;;5.97;49.34
50684;BME280;36654;45.042;38.994;2023-01-27T12:36:27;101422.72;;;5.97;48.11
50684;BME280;36654;45.042;38.994;2023-01-27T12:38:56;101428.09;;;6.00;47.77
50684;BME280;36654;45.042;38.994;2023-01-27T12:41:30;101434.25;;;6.00;47.67
50684;BME280;36654;45.042;38.994;2023-01-27T12:44:19;101419.34;;;6.01;47.55
50684;BME280;36654;45.042;38.994;2023-01-27T12:47:02;101420.22;;;6.00;47.80
50684;BME280;36654;45.042;38.994;2023-01-27T12:49:33;101383.28;;;5.77;47.92
50684;BME280;36654;45.042;38.994;2023-01-27T12:52:02;101428.34;;;6.06;47.93
50684;BME280;36654;45.042;38.994;2023-01-27T12:54:31;101426.66;;;6.08;48.10
50684;BME280;36654;45.042;38.994;2023-01-27T12:57:04;101430.28;;;6.10;48.54
50684;BME280;36654;45.042;38.994;2023-01-27T12:59:32;101422.28;;;6.09;48.67
50684;BME280;36654;45.042;38.994;2023-01-27T13:04:42;101425.00;;;6.10;49.77
50684;BME280;36654;45.042;38.994;2023-01-27T13:07:14;101416.91;;;6.05;50.19
50684;BME280;36654;45.042;38.994;2023-01-27T13:10:05;101424.03;;;6.08;50.41
50684;BME280;36654;45.042;38.994;2023-01-27T13:12:54;101406.00;;;5.96;50.80
50684;BME280;36654;45.042;38.994;2023-01-27T13:15:22;101422.06;;;6.02;50.95
50684;BME280;36654;45.042;38.994;2023-01-27T13:17:53;101424.63;;;6.01;50.99
50684;BME280;36654;45.042;38.994;2023-01-27T13:25:43;101425.13;;;5.92;51.56
50684;BME280;36654;45.042;38.994;2023-01-27T13:28:16;101428.22;;;5.82;51.60
50684;BME280;36654;45.042;38.994;2023-01-27T13:30:48;101420.13;;;5.77;51.73
50684;BME280;36654;45.042;38.994;2023-01-27T13:36:05;101422.31;;;5.67;51.25
50684;BME280;36654;45.042;38.994;2023-01-27T13:38:49;101429.03;;;5.60;51.13
50684;BME280;36654;45.042;38.994;2023-01-27T13:41:21;101417.16;;;5.49;51.35
50684;BME280;36654;45.042;38.994;2023-01-27T13:44:00;101400.72;;;5.33;51.51
50684;BME280;36654;45.042;38.994;2023-01-27T13:46:31;101425.50;;;5.38;51.44
50684;BME280;36654;45.042;38.994;2023-01-27T13:49:03;101438.50;;;5.35;51.50
50684;BME280;36654;45.042;38.994;2023-01-27T13:51:34;101424.94;;;5.26;51.79
50684;BME280;36654;45.042;38.994;2023-01-27T13:54:03;101387.28;;;5.06;52.21
50684;BME280;36654;45.042;38.994;2023-01-27T14:07:46;101424.50;;;4.96;53.32
50684;BME280;36654;45.042;38.994;2023-01-27T14:10:34;101423.34;;;4.89;53.81
50684;BME280;36654;45.042;38.994;2023-01-27T14:18:45;101419.06;;;4.72;54.49
50684;BME280;36654;45.042;38.994;2023-01-27T14:27:23;101392.06;;;4.57;55.20
50684;BME280;36654;45.042;38.994;2023-01-27T14:39:22;101405.06;;;4.53;55.80
50684;BME280;36654;45.042;38.994;2023-01-27T14:47:09;101400.44;;;4.48;56.55
50684;BME280;36654;45.042;38.994;2023-01-27T14:52:33;101410.84;;;4.46;56.92
50684;BME280;36654;45.042;38.994;2023-01-27T14:55:20;101410.72;;;4.43;56.97
50684;BME280;36654;45.042;38.994;2023-01-27T15:00:56;101399.19;;;4.40;57.50
50684;BME280;36654;45.042;38.994;2023-01-27T15:06:16;101385.53;;;4.29;57.27
50684;BME280;36654;45.042;38.994;2023-01-27T15:14:50;101391.72;;;4.29;57.16